Time;durP1;ratioP1;P1;durP2;ratioP2;P2;SDS_P1;SDS_P2;PMS_P1;PMS_P2;Temp;Humidity;BMP_temperature;BMP_pressure;BME280_temperature;BME280_humidity;BME280_pressure;Samples;Min_cycle;Max_cycle;Signal;HPM_P1;HPM_P2
2024/03/04 00:01:17;;;;;;;37.20;22.90;;;;;;;7.80;71.33;99555.36;130292;1263;107606;-82
2024/03/04 00:04:26;;;;;;;37.00;23.90;;;;;;;7.77;71.27;99556.86;130370;1264;107026;-82
2024/03/04 00:07:32;;;;;;;36.90;25.00;;;;;;;7.77;71.45;99555.30;130535;1263;109633;-82
2024/03/04 00:10:38;;;;;;;34.80;25.10;;;;;;;7.77;71.59;99549.84;130335;1263;107410;-82
2024/03/04 00:13:43;;;;;;;40.30;25.90;;;;;;;7.78;71.42;99547.14;130336;1263;106823;-82
2024/03/04 00:16:49;;;;;;;36.00;21.80;;;;;;;7.75;71.37;99552.34;130342;1261;108788;-82
2024/03/04 00:19:55;;;;;;;34.20;20.40;;;;;;;7.75;71.48;99547.41;130284;1262;106185;-82
2024/03/04 00:23:00;;;;;;;33.00;22.20;;;;;;;7.77;71.52;99545.23;130338;1264;107285;-82
2024/03/04 00:26:09;;;;;;;31.90;22.30;;;;;;;7.80;71.60;99542.48;130377;1264;107755;-82
2024/03/04 00:29:15;;;;;;;33.30;22.80;;;;;;;7.84;71.48;99535.32;130358;1265;107647;-82
2024/03/04 00:32:21;;;;;;;35.80;23.60;;;;;;;7.88;71.37;99529.50;130494;1264;108677;-82
2024/03/04 00:35:27;;;;;;;36.10;22.60;;;;;;;7.88;71.51;99526.08;130490;1261;107377;-82
2024/03/04 00:38:32;;;;;;;30.30;21.20;;;;;;;7.85;71.40;99528.13;130385;1262;107132;-82
2024/03/04 00:41:38;;;;;;;30.40;21.20;;;;;;;7.81;71.33;99523.42;130468;1261;108594;-82
2024/03/04 00:44:43;;;;;;;30.10;20.90;;;;;;;7.76;71.23;99522.20;130519;1261;108798;-81
2024/03/04 00:47:49;;;;;;;31.20;20.90;;;;;;;7.71;71.36;99520.33;130485;1262;108778;-82
2024/03/04 00:50:56;;;;;;;28.80;20.00;;;;;;;7.65;71.38;99515.23;130577;1264;109224;-82
2024/03/04 00:54:02;;;;;;;29.20;20.60;;;;;;;7.58;71.40;99513.15;130382;1261;106202;-82
2024/03/04 00:57:08;;;;;;;29.50;19.10;;;;;;;7.51;71.24;99513.64;130548;1262;106508;-81
2024/03/04 01:00:14;;;;;;;29.80;20.30;;;;;;;7.46;71.34;99516.61;130495;1260;109478;-82
2024/03/04 01:03:20;;;;;;;30.30;20.60;;;;;;;7.39;71.38;99520.80;130435;1264;105858;-82
2024/03/04 01:06:25;;;;;;;30.00;18.90;;;;;;;7.35;71.61;99524.95;130467;1262;108714;-81
2024/03/04 01:09:31;;;;;;;30.00;19.30;;;;;;;7.33;71.68;99520.93;130485;1260;107572;-81
2024/03/04 01:12:37;;;;;;;34.30;21.00;;;;;;;7.31;71.36;99520.24;130416;1262;106598;-81
2024/03/04 01:15:43;;;;;;;29.40;18.90;;;;;;;7.25;71.53;99523.73;130414;1262;108880;-81
2024/03/04 01:18:49;;;;;;;29.10;18.00;;;;;;;7.23;71.44;99526.27;130569;1263;108396;-81
2024/03/04 01:21:58;;;;;;;32.60;19.00;;;;;;;7.22;71.36;99531.03;130473;1261;107768;-81
2024/03/04 01:25:03;;;;;;;26.80;17.70;;;;;;;7.21;71.47;99531.63;130367;1261;108680;-81
2024/03/04 01:28:09;;;;;;;29.30;17.40;;;;;;;7.22;71.45;99527.48;130319;1261;109162;-81
2024/03/04 01:31:18;;;;;;;26.90;16.00;;;;;;;7.24;71.39;99529.30;130420;1262;107704;-84
2024/03/04 01:34:23;;;;;;;25.00;16.80;;;;;;;7.26;71.34;99526.84;130427;1260;106931;-81
2024/03/04 01:37:29;;;;;;;26.30;17.10;;;;;;;7.32;71.40;99529.34;130454;1264;107173;-81
2024/03/04 01:40:35;;;;;;;27.70;16.80;;;;;;;7.38;71.52;99524.61;130463;1263;108608;-81
2024/03/04 01:43:40;;;;;;;27.80;17.60;;;;;;;7.44;71.32;99524.20;130455;1261;106435;-81
2024/03/04 01:46:47;;;;;;;31.20;18.70;;;;;;;7.48;71.35;99529.14;130514;1263;106964;-81
2024/03/04 01:49:53;;;;;;;26.10;17.30;;;;;;;7.50;71.18;99530.25;130417;1263;107242;-81
2024/03/04 01:53:03;;;;;;;24.00;16.70;;;;;;;7.50;71.26;99526.81;130345;1261;107737;-81
2024/03/04 01:56:10;;;;;;;24.90;17.70;;;;;;;7.51;71.33;99529.91;130378;1260;107070;-81
2024/03/04 01:59:17;;;;;;;24.40;16.70;;;;;;;7.51;71.30;99530.70;130492;1261;107668;-82
2024/03/04 02:02:23;;;;;;;23.90;16.40;;;;;;;7.48;71.33;99529.80;130379;1261;107929;-81
2024/03/04 02:05:28;;;;;;;26.40;17.20;;;;;;;7.46;71.31;99532.52;130440;1264;105849;-81
2024/03/04 02:08:35;;;;;;;26.40;17.40;;;;;;;7.45;71.41;99529.45;130372;1261;108965;-81
2024/03/04 02:11:41;;;;;;;25.10;17.30;;;;;;;7.41;71.36;99529.63;130421;1259;108745;-81
2024/03/04 02:14:46;;;;;;;25.30;16.90;;;;;;;7.39;71.51;99527.40;130447;1261;108248;-81
2024/03/04 02:17:52;;;;;;;27.70;19.70;;;;;;;7.38;71.28;99527.69;130478;1262;106848;-81
2024/03/04 02:21:03;;;;;;;28.80;18.80;;;;;;;7.36;71.59;99526.31;130495;1280;106507;-81
2024/03/04 02:24:09;;;;;;;26.60;18.30;;;;;;;7.34;71.53;99531.61;130369;1262;105661;-81
2024/03/04 02:27:14;;;;;;;33.20;21.00;;;;;;;7.32;71.58;99529.71;130503;1262;108775;-81
2024/03/04 02:30:20;;;;;;;26.50;18.90;;;;;;;7.25;71.45;99516.77;130531;1264;106714;-81
2024/03/04 02:33:26;;;;;;;32.50;19.10;;;;;;;7.22;71.53;99512.06;130512;1261;107103;-81
2024/03/04 02:36:32;;;;;;;31.50;19.90;;;;;;;7.17;71.67;99512.57;130520;1261;106682;-81
2024/03/04 02:39:40;;;;;;;31.50;17.80;;;;;;;7.12;71.72;99512.71;130484;1264;107770;-81
2024/03/04 02:42:45;;;;;;;24.80;15.20;;;;;;;7.09;71.39;99517.06;130418;1264;108585;-81
2024/03/04 02:45:51;;;;;;;26.00;16.60;;;;;;;7.07;71.60;99518.50;130308;1264;106892;-81
2024/03/04 02:48:57;;;;;;;26.70;17.00;;;;;;;7.10;71.61;99519.80;130333;1262;108807;-81
2024/03/04 02:52:03;;;;;;;27.70;16.70;;;;;;;7.12;71.62;99518.36;130417;1264;108705;-81
2024/03/04 02:55:09;;;;;;;26.70;16.40;;;;;;;7.14;71.30;99518.73;130421;1264;106783;-81
2024/03/04 02:58:16;;;;;;;26.30;16.60;;;;;;;7.10;71.46;99521.39;130350;1264;107655;-81
2024/03/04 03:01:21;;;;;;;26.10;17.50;;;;;;;7.07;71.53;99526.56;130373;1264;106317;-81
2024/03/04 03:04:27;;;;;;;24.60;16.90;;;;;;;7.08;71.52;99528.65;130296;1262;108547;-83
2024/03/04 03:07:33;;;;;;;24.50;16.50;;;;;;;7.07;71.55;99529.94;130242;1264;107917;-82
2024/03/04 03:10:39;;;;;;;33.20;17.80;;;;;;;7.03;71.55;99533.68;130417;1264;108614;-82
2024/03/04 03:13:45;;;;;;;24.50;17.30;;;;;;;7.02;71.79;99532.56;130397;1264;106812;-81
2024/03/04 03:16:52;;;;;;;26.30;18.40;;;;;;;7.02;71.63;99534.13;130767;1263;106408;-82
2024/03/04 03:19:57;;;;;;;28.50;18.40;;;;;;;7.00;71.80;99533.27;130398;1264;106445;-82
2024/03/04 03:23:03;;;;;;;29.70;18.70;;;;;;;6.99;71.43;99534.23;130483;1264;106499;-82
2024/03/04 03:26:10;;;;;;;28.50;18.00;;;;;;;6.97;71.60;99529.11;130444;1264;108717;-82
2024/03/04 03:29:16;;;;;;;28.10;17.70;;;;;;;6.97;71.53;99532.86;130473;1263;107731;-81
2024/03/04 03:32:22;;;;;;;26.80;18.00;;;;;;;6.97;71.72;99525.95;130454;1264;106905;-83
2024/03/04 03:35:27;;;;;;;48.00;18.30;;;;;;;6.93;71.94;99524.70;130474;1264;108904;-81
2024/03/04 03:38:33;;;;;;;32.70;18.20;;;;;;;6.92;71.83;99523.13;130414;1263;107151;-81
2024/03/04 03:41:39;;;;;;;27.70;17.30;;;;;;;6.88;71.85;99525.61;130464;1272;107592;-81
2024/03/04 03:44:45;;;;;;;26.20;16.00;;;;;;;6.83;72.01;99527.63;130444;1263;107541;-81
2024/03/04 03:47:50;;;;;;;33.90;18.60;;;;;;;6.85;71.87;99531.70;130498;1263;108543;-81
2024/03/04 03:50:56;;;;;;;24.90;16.40;;;;;;;6.89;72.21;99530.63;130474;1258;108163;-80
2024/03/04 03:54:02;;;;;;;28.20;18.10;;;;;;;6.91;72.03;99532.55;130436;1262;106926;-81
2024/03/04 03:57:08;;;;;;;28.80;19.30;;;;;;;6.94;72.18;99528.92;130535;1262;107092;-81
2024/03/04 04:00:15;;;;;;;30.90;18.70;;;;;;;6.94;72.04;99532.64;130495;1258;106082;-83
2024/03/04 04:03:21;;;;;;;29.40;18.60;;;;;;;6.92;72.30;99530.69;130506;1263;105991;-84
2024/03/04 04:06:27;;;;;;;32.70;20.30;;;;;;;6.87;72.50;99526.89;130518;1261;108795;-84
2024/03/04 04:09:33;;;;;;;33.80;20.80;;;;;;;6.83;72.30;99526.45;130490;1264;106856;-83
2024/03/04 04:12:38;;;;;;;31.60;20.30;;;;;;;6.75;72.37;99528.29;130448;1259;108587;-83
2024/03/04 04:15:44;;;;;;;34.20;21.10;;;;;;;6.69;72.28;99530.94;130427;1261;109151;-83
2024/03/04 04:18:49;;;;;;;34.90;21.00;;;;;;;6.63;72.41;99531.09;130412;1264;108651;-81
2024/03/04 04:21:55;;;;;;;30.50;20.40;;;;;;;6.56;72.39;99533.02;130451;1263;107165;-81
2024/03/04 04:25:01;;;;;;;29.70;18.30;;;;;;;6.50;72.78;99535.56;130592;1263;107317;-81
2024/03/04 04:28:07;;;;;;;31.30;18.00;;;;;;;6.42;72.65;99535.92;130490;1258;108471;-81
2024/03/04 04:31:21;;;;;;;45.90;24.30;;;;;;;6.38;72.94;99540.25;130447;1265;108641;-81
2024/03/04 04:34:27;;;;;;;51.70;27.60;;;;;;;6.40;73.28;99542.19;130438;1263;106607;-81
2024/03/04 04:37:33;;;;;;;59.20;32.40;;;;;;;6.42;73.00;99536.11;130503;1264;106697;-81
2024/03/04 04:40:38;;;;;;;56.40;31.00;;;;;;;6.42;73.27;99532.95;130815;1264;108567;-81
2024/03/04 04:43:44;;;;;;;41.20;24.40;;;;;;;6.41;72.98;99532.85;130453;1259;108408;-81
2024/03/04 04:46:49;;;;;;;41.30;24.70;;;;;;;6.39;73.32;99536.42;130440;1263;109224;-81
2024/03/04 04:49:55;;;;;;;35.70;22.30;;;;;;;6.36;73.28;99535.65;130447;1264;107603;-81
2024/03/04 04:53:01;;;;;;;40.50;23.10;;;;;;;6.32;73.12;99532.66;130435;1267;106260;-81
2024/03/04 04:56:07;;;;;;;38.20;22.40;;;;;;;6.28;73.48;99531.23;130503;1258;105724;-81
2024/03/04 04:59:12;;;;;;;34.50;21.30;;;;;;;6.24;73.41;99530.58;130438;1258;108743;-81
2024/03/04 05:02:18;;;;;;;39.20;22.20;;;;;;;6.21;73.46;99535.21;130513;1263;107718;-81
2024/03/04 05:05:24;;;;;;;37.60;21.50;;;;;;;6.19;73.59;99535.46;130407;1268;107201;-81
2024/03/04 05:08:29;;;;;;;37.80;22.00;;;;;;;6.16;73.75;99535.58;130419;1264;108814;-81
2024/03/04 05:11:35;;;;;;;35.70;20.70;;;;;;;6.16;73.83;99537.52;130438;1264;107671;-81
2024/03/04 05:14:41;;;;;;;39.00;20.60;;;;;;;6.18;73.89;99537.79;130489;1264;108383;-81
2024/03/04 05:17:46;;;;;;;34.20;19.90;;;;;;;6.24;74.28;99538.54;130407;1259;108786;-80
2024/03/04 05:20:52;;;;;;;32.70;20.20;;;;;;;6.29;73.99;99540.86;130420;1263;108690;-80
2024/03/04 05:23:58;;;;;;;33.40;19.80;;;;;;;6.34;73.88;99545.58;130477;1259;108060;-81
2024/03/04 05:27:03;;;;;;;35.10;21.00;;;;;;;6.38;74.08;99545.13;130442;1264;108411;-81
2024/03/04 05:30:12;;;;;;;34.70;20.90;;;;;;;6.41;73.92;99546.80;130363;1260;108847;-81
2024/03/04 05:33:17;;;;;;;34.20;20.40;;;;;;;6.41;74.06;99551.59;130502;1272;108627;-81
2024/03/04 05:36:23;;;;;;;33.00;20.10;;;;;;;6.42;74.12;99548.50;130401;1259;108591;-81
2024/03/04 05:39:31;;;;;;;29.70;19.60;;;;;;;6.41;74.31;99549.34;130420;1259;108708;-81
2024/03/04 05:42:39;;;;;;;35.00;20.40;;;;;;;6.39;74.27;99550.23;130566;1263;107515;-80
2024/03/04 05:45:45;;;;;;;36.20;21.50;;;;;;;6.40;74.31;99556.08;130445;1264;107570;-81
2024/03/04 05:48:50;;;;;;;33.60;21.00;;;;;;;6.39;74.13;99556.39;130475;1265;106719;-81
2024/03/04 05:51:58;;;;;;;31.60;18.70;;;;;;;6.39;74.32;99556.41;130455;1264;107647;-80
2024/03/04 05:55:06;;;;;;;32.70;18.80;;;;;;;6.40;74.40;99555.95;130423;1261;106476;-80
2024/03/04 05:58:11;;;;;;;34.40;19.50;;;;;;;6.44;74.74;99553.43;130777;1265;107677;-80
2024/03/04 06:01:19;;;;;;;31.70;19.10;;;;;;;6.49;74.63;99560.75;130323;1261;106965;-80
2024/03/04 06:04:25;;;;;;;29.50;19.00;;;;;;;6.54;74.53;99562.73;130519;1263;106581;-80
2024/03/04 06:07:31;;;;;;;35.60;20.20;;;;;;;6.58;74.45;99565.36;130276;1264;107535;-78
2024/03/04 06:10:36;;;;;;;32.40;19.10;;;;;;;6.63;74.36;99570.38;130274;1259;108574;-79
2024/03/04 06:13:42;;;;;;;31.40;20.20;;;;;;;6.66;74.52;99572.03;130217;1265;106619;-79
2024/03/04 06:16:47;;;;;;;30.90;19.50;;;;;;;6.70;74.26;99574.16;130246;1260;106669;-78
2024/03/04 06:19:53;;;;;;;32.60;20.10;;;;;;;6.73;74.16;99576.22;130342;1264;108491;-78
2024/03/04 06:22:58;;;;;;;32.40;20.40;;;;;;;6.72;74.38;99581.23;130251;1264;107701;-79
2024/03/04 06:26:10;;;;;;;34.40;21.10;;;;;;;6.69;74.48;99580.58;130317;1263;106762;-79
2024/03/04 06:29:17;;;;;;;34.90;21.60;;;;;;;6.69;74.61;99585.55;130351;1265;107653;-79
2024/03/04 06:32:22;;;;;;;33.70;21.50;;;;;;;6.72;74.48;99581.05;130274;1258;108771;-78
2024/03/04 06:35:28;;;;;;;32.10;18.90;;;;;;;6.76;74.74;99581.42;130271;1271;107117;-79
2024/03/04 06:38:34;;;;;;;34.30;18.20;;;;;;;6.77;74.74;99581.25;130270;1271;109425;-79
2024/03/04 06:41:40;;;;;;;34.90;19.60;;;;;;;6.82;74.92;99587.54;130413;1263;107777;-79
2024/03/04 06:44:46;;;;;;;33.50;20.10;;;;;;;6.89;75.07;99587.39;130361;1261;107608;-79
2024/03/04 06:47:53;;;;;;;33.50;20.50;;;;;;;6.96;75.00;99584.98;130348;1271;106883;-79
2024/03/04 06:50:58;;;;;;;32.40;19.70;;;;;;;7.01;74.95;99588.15;130190;1264;106497;-79
2024/03/04 06:54:05;;;;;;;33.40;20.50;;;;;;;7.07;75.16;99586.68;130229;1270;108647;-80
2024/03/04 06:57:14;;;;;;;34.20;20.60;;;;;;;7.13;75.23;99589.39;130475;1274;107598;-80
2024/03/04 07:00:21;;;;;;;38.50;21.10;;;;;;;7.15;75.39;99588.79;130428;1262;108017;-80
2024/03/04 07:03:26;;;;;;;33.70;21.40;;;;;;;7.21;75.38;99588.27;130662;1263;108703;-81
2024/03/04 07:06:32;;;;;;;37.20;21.30;;;;;;;7.27;75.46;99590.63;130554;1271;106638;-80
2024/03/04 07:09:37;;;;;;;35.30;21.50;;;;;;;7.33;75.62;99592.08;130413;1272;107748;-81
2024/03/04 07:12:43;;;;;;;37.20;21.10;;;;;;;7.35;75.32;99590.00;130425;1272;108851;-81
2024/03/04 07:15:48;;;;;;;34.40;20.30;;;;;;;7.41;75.58;99585.41;130381;1262;107072;-79
2024/03/04 07:18:54;;;;;;;36.00;22.00;;;;;;;7.48;75.49;99584.33;130671;1258;108070;-79
2024/03/04 07:21:59;;;;;;;39.50;23.50;;;;;;;7.58;75.13;99584.80;130432;1268;108434;-81
2024/03/04 07:25:06;;;;;;;38.60;23.20;;;;;;;7.72;75.52;99578.29;131450;1263;109198;-80
2024/03/04 07:28:13;;;;;;;45.60;28.40;;;;;;;7.87;75.46;99580.93;130714;1263;106431;-78
2024/03/04 07:31:19;;;;;;;49.90;28.50;;;;;;;8.01;75.30;99581.30;130247;1264;106565;-78
2024/03/04 07:34:26;;;;;;;46.20;29.60;;;;;;;8.09;75.22;99581.74;130273;1264;106837;-79
2024/03/04 07:37:33;;;;;;;41.30;24.90;;;;;;;8.17;75.15;99583.87;130966;1263;107153;-79
2024/03/04 07:40:39;;;;;;;37.00;23.00;;;;;;;8.21;74.99;99585.96;130887;1263;107269;-79
2024/03/04 07:43:46;;;;;;;36.70;22.80;;;;;;;8.25;75.06;99586.15;130527;1263;108423;-80
2024/03/04 07:46:52;;;;;;;39.90;23.20;;;;;;;8.29;74.92;99589.54;130854;1263;107984;-79
2024/03/04 07:49:58;;;;;;;48.20;26.30;;;;;;;8.30;74.89;99595.63;130725;1263;106878;-79
2024/03/04 07:53:04;;;;;;;37.70;23.20;;;;;;;8.32;74.81;99595.31;130622;1260;108663;-80
2024/03/04 07:56:10;;;;;;;41.90;25.60;;;;;;;8.37;74.85;99595.58;130785;1259;108815;-79
2024/03/04 07:59:40;;;;;;;41.50;23.90;;;;;;;8.42;74.76;99594.77;131264;1260;108769;-85
2024/03/04 08:02:46;;;;;;;45.30;25.50;;;;;;;8.47;74.78;99599.41;131027;1263;108171;-81
2024/03/04 08:05:52;;;;;;;39.00;22.90;;;;;;;8.53;74.79;99599.88;130777;1270;108547;-81
2024/03/04 08:08:57;;;;;;;43.80;24.40;;;;;;;8.58;74.83;99598.79;132066;1260;107189;-81
2024/03/04 08:12:04;;;;;;;38.10;24.10;;;;;;;8.64;74.81;99597.29;131210;1263;108610;-82
2024/03/04 08:15:11;;;;;;;43.20;26.30;;;;;;;8.76;75.00;99594.33;130768;1263;107494;-80
2024/03/04 08:18:17;;;;;;;39.80;22.80;;;;;;;8.86;74.65;99592.41;130775;1264;107703;-81
2024/03/04 08:21:22;;;;;;;32.90;20.50;;;;;;;8.87;74.40;99591.36;130818;1260;108352;-78
2024/03/04 08:24:28;;;;;;;33.30;21.30;;;;;;;8.90;74.67;99588.98;130214;1264;106733;-79
2024/03/04 08:27:33;;;;;;;36.10;22.10;;;;;;;9.02;74.58;99589.17;130298;1273;107662;-78
2024/03/04 08:30:39;;;;;;;34.50;21.10;;;;;;;9.19;74.63;99582.63;130279;1263;108146;-79
2024/03/04 08:33:45;;;;;;;32.50;22.10;;;;;;;9.37;74.64;99586.58;130569;1262;106862;-78
2024/03/04 08:36:51;;;;;;;32.80;20.40;;;;;;;9.54;74.60;99585.53;130372;1264;107890;-78
2024/03/04 08:39:59;;;;;;;34.20;21.00;;;;;;;9.65;74.45;99587.66;130394;1261;108857;-78
2024/03/04 08:43:06;;;;;;;33.30;20.30;;;;;;;9.67;73.74;99589.63;130400;1263;108672;-77
2024/03/04 08:46:11;;;;;;;32.20;20.90;;;;;;;9.61;74.03;99597.83;130349;1263;108784;-82
2024/03/04 08:49:17;;;;;;;31.50;19.40;;;;;;;9.64;74.06;99599.55;130715;1261;108676;-81
2024/03/04 08:52:23;;;;;;;35.50;21.70;;;;;;;9.64;73.80;99601.30;130602;1263;108715;-82
2024/03/04 08:55:31;;;;;;;35.90;20.70;;;;;;;9.67;73.82;99604.00;130519;1263;106235;-81
2024/03/04 08:58:37;;;;;;;33.90;22.60;;;;;;;9.66;73.62;99607.90;130647;1264;107653;-79
2024/03/04 09:01:42;;;;;;;35.30;22.30;;;;;;;9.61;73.90;99613.64;131614;1260;108377;-79
2024/03/04 09:04:49;;;;;;;34.10;21.00;;;;;;;9.60;73.88;99617.17;131107;1261;106722;-79
2024/03/04 09:07:55;;;;;;;33.10;21.50;;;;;;;9.60;73.66;99614.83;130788;1263;107820;-79
2024/03/04 09:11:01;;;;;;;35.90;22.40;;;;;;;9.67;73.99;99619.58;130667;1264;107082;-80
2024/03/04 09:14:07;;;;;;;33.00;21.50;;;;;;;9.75;73.48;99615.89;130970;1258;107630;-80
2024/03/04 09:17:13;;;;;;;35.50;22.00;;;;;;;9.82;73.98;99618.90;130938;1263;108536;-79
2024/03/04 09:20:19;;;;;;;32.90;20.60;;;;;;;9.91;73.70;99617.80;131399;1260;106405;-79
2024/03/04 09:23:26;;;;;;;33.70;20.30;;;;;;;10.01;73.47;99616.22;130644;1261;107152;-79
2024/03/04 09:26:31;;;;;;;32.70;21.30;;;;;;;10.11;73.38;99617.23;130800;1260;106799;-79
2024/03/04 09:29:37;;;;;;;31.10;20.60;;;;;;;10.17;73.02;99615.29;130549;1259;107400;-81
2024/03/04 09:32:43;;;;;;;34.80;21.50;;;;;;;10.21;73.21;99616.12;130740;1264;107236;-80
2024/03/04 09:35:49;;;;;;;33.40;21.60;;;;;;;10.30;73.17;99615.91;131210;1261;107281;-80
2024/03/04 09:38:54;;;;;;;33.70;21.60;;;;;;;10.35;72.90;99620.39;130618;1262;108909;-80
2024/03/04 09:42:01;;;;;;;34.40;21.50;;;;;;;10.39;72.83;99618.46;130778;1263;107759;-79
2024/03/04 09:45:09;;;;;;;33.00;21.70;;;;;;;10.39;72.89;99617.45;130475;1261;107017;-80
2024/03/04 09:48:16;;;;;;;34.80;21.50;;;;;;;10.41;73.10;99622.74;130270;1262;107005;-77
2024/03/04 09:51:24;;;;;;;31.50;20.20;;;;;;;10.39;72.38;99621.19;130424;1261;107540;-80
2024/03/04 09:54:32;;;;;;;34.70;22.10;;;;;;;10.38;72.84;99617.77;130698;1263;108845;-81
2024/03/04 09:57:38;;;;;;;34.00;21.70;;;;;;;10.41;72.64;99615.29;130720;1261;107802;-81
2024/03/04 10:00:45;;;;;;;31.00;20.50;;;;;;;10.40;72.52;99612.65;130612;1261;107978;-81
2024/03/04 10:03:52;;;;;;;33.80;21.90;;;;;;;10.40;72.46;99615.13;130603;1260;107644;-81
2024/03/04 10:06:58;;;;;;;31.60;21.20;;;;;;;10.43;72.49;99616.30;130634;1271;109724;-82
2024/03/04 10:10:04;;;;;;;36.40;21.50;;;;;;;10.46;72.88;99615.05;130585;1260;107633;-80
2024/03/04 10:13:11;;;;;;;32.70;20.50;;;;;;;10.57;72.68;99615.14;130818;1259;109097;-78
2024/03/04 10:16:16;;;;;;;29.30;19.80;;;;;;;10.67;71.92;99621.86;131090;1260;107005;-81
2024/03/04 10:19:22;;;;;;;31.30;19.80;;;;;;;10.69;71.84;99625.89;130595;1263;107751;-81
2024/03/04 10:22:34;;;;;;;35.20;22.30;;;;;;;10.72;72.10;99626.22;130730;1260;109602;-83
2024/03/04 10:25:39;;;;;;;32.20;20.50;;;;;;;10.68;72.01;99627.06;130783;1261;108527;-79
2024/03/04 10:28:45;;;;;;;32.20;20.40;;;;;;;10.57;71.74;99622.22;130815;1259;108767;-80
2024/03/04 10:31:55;;;;;;;35.10;21.70;;;;;;;10.50;72.07;99622.12;130383;1263;105846;-82
2024/03/04 10:35:05;;;;;;;34.70;21.60;;;;;;;10.49;72.02;99622.58;130789;1263;108824;-81
2024/03/04 10:38:13;;;;;;;33.80;22.00;;;;;;;10.53;71.93;99622.81;130591;1258;107594;-80
2024/03/04 10:41:22;;;;;;;35.60;21.60;;;;;;;10.49;71.89;99627.36;130673;1261;108726;-81
2024/03/04 10:44:28;;;;;;;34.20;22.40;;;;;;;10.45;71.97;99620.85;130659;1258;108678;-79
2024/03/04 10:47:35;;;;;;;31.80;21.20;;;;;;;10.49;71.76;99623.14;130613;1271;106532;-81
2024/03/04 10:50:41;;;;;;;30.60;20.10;;;;;;;10.58;71.96;99616.05;130618;1261;105434;-81
2024/03/04 10:53:46;;;;;;;32.20;21.00;;;;;;;10.73;71.79;99611.58;130741;1262;106839;-79
2024/03/04 10:56:59;;;;;;;35.10;23.40;;;;;;;10.93;71.72;99611.07;130652;1261;107636;-81
2024/03/04 11:00:17;;;;;;;34.50;22.30;;;;;;;11.11;71.48;99606.50;130611;1258;108801;-82
2024/03/04 11:03:26;;;;;;;34.80;23.40;;;;;;;11.25;71.16;99605.65;132090;1261;108460;-80
2024/03/04 11:06:35;;;;;;;30.10;20.70;;;;;;;11.33;71.11;99601.10;133695;1258;107623;-80
2024/03/04 11:09:45;;;;;;;32.20;21.40;;;;;;;11.34;71.03;99606.00;131349;1260;108803;-79
2024/03/04 11:13:00;;;;;;;29.80;20.20;;;;;;;11.30;70.33;99609.42;130156;1262;107639;-79
2024/03/04 11:16:08;;;;;;;28.60;19.90;;;;;;;11.27;70.28;99606.64;130172;1265;266198;-81
2024/03/04 11:19:23;;;;;;;30.50;21.30;;;;;;;11.15;70.34;99607.38;130537;1259;108306;-81
2024/03/04 11:22:29;;;;;;;28.90;19.50;;;;;;;11.03;70.66;99607.52;130563;1263;108784;-82
2024/03/04 11:25:36;;;;;;;30.20;20.10;;;;;;;10.92;70.28;99609.34;130549;1263;106369;-81
2024/03/04 11:28:42;;;;;;;27.20;19.60;;;;;;;10.84;70.62;99610.19;130511;1264;106273;-83
2024/03/04 11:31:55;;;;;;;33.40;20.60;;;;;;;10.78;70.46;99613.30;130449;1261;108752;-79
2024/03/04 11:35:05;;;;;;;27.20;19.50;;;;;;;10.74;70.50;99617.17;130513;1263;108757;-80
2024/03/04 11:38:11;;;;;;;32.80;19.70;;;;;;;10.74;70.72;99618.44;130273;1258;108695;-79
2024/03/04 11:41:44;;;;;;;32.20;21.00;;;;;;;10.74;70.44;99619.63;130197;1264;106558;-81
2024/03/04 11:44:51;;;;;;;31.20;21.10;;;;;;;10.64;70.44;99618.23;130683;1261;107878;-81
2024/03/04 11:47:57;;;;;;;34.00;21.60;;;;;;;10.54;70.54;99614.67;130538;1260;107675;-80
2024/03/04 11:51:03;;;;;;;35.60;21.70;;;;;;;10.45;70.67;99611.63;130551;1263;107065;-81
2024/03/04 11:54:09;;;;;;;31.60;19.40;;;;;;;10.42;70.66;99607.85;130436;1258;106769;-79
2024/03/04 11:57:16;;;;;;;31.40;20.20;;;;;;;10.40;70.41;99609.02;132740;1258;107506;-79
2024/03/04 12:00:23;;;;;;;31.70;20.70;;;;;;;10.34;70.71;99602.70;130985;1263;106799;-79
2024/03/04 12:03:29;;;;;;;31.80;20.00;;;;;;;10.30;70.24;99600.58;130749;1260;107810;-78
2024/03/04 12:06:35;;;;;;;33.10;19.70;;;;;;;10.28;70.52;99601.04;130327;1263;106632;-79
2024/03/04 12:09:41;;;;;;;31.80;20.90;;;;;;;10.35;70.58;99602.89;130175;1264;107487;-78
2024/03/04 12:12:47;;;;;;;33.70;21.60;;;;;;;10.38;70.43;99600.59;130363;1274;106768;-78
2024/03/04 12:15:57;;;;;;;30.80;20.10;;;;;;;10.36;70.59;99599.83;130365;1259;108507;-78
2024/03/04 12:19:02;;;;;;;32.10;21.50;;;;;;;10.35;70.48;99595.16;130311;1264;108636;-79
2024/03/04 12:22:08;;;;;;;34.50;23.10;;;;;;;10.38;70.34;99601.56;130320;1261;107890;-78
2024/03/04 12:25:14;;;;;;;30.70;21.20;;;;;;;10.40;70.55;99598.33;131295;1258;107946;-78
2024/03/04 12:28:19;;;;;;;30.30;20.90;;;;;;;10.35;70.46;99602.55;130991;1258;106671;-79
2024/03/04 12:31:25;;;;;;;34.40;23.40;;;;;;;10.26;70.17;99598.86;130613;1263;106855;-82
2024/03/04 12:34:33;;;;;;;32.00;21.70;;;;;;;10.23;70.07;99599.06;130518;1259;107783;-80
2024/03/04 12:37:39;;;;;;;35.30;23.70;;;;;;;10.20;70.45;99599.87;130847;1257;109435;-82
2024/03/04 12:40:46;;;;;;;36.80;24.10;;;;;;;10.18;70.15;99598.20;130700;1258;106618;-79
2024/03/04 12:43:53;;;;;;;31.40;21.90;;;;;;;10.15;70.23;99605.20;130665;1259;106668;-83
2024/03/04 12:47:01;;;;;;;33.50;22.00;;;;;;;10.10;70.09;99603.27;131018;1257;109281;-82
2024/03/04 12:50:08;;;;;;;38.10;25.50;;;;;;;10.07;70.58;99599.94;130602;1257;106347;-82
2024/03/04 12:53:19;;;;;;;31.90;22.10;;;;;;;10.07;70.68;99601.20;130501;1258;108549;-79
2024/03/04 12:56:26;;;;;;;34.60;22.50;;;;;;;10.03;70.49;99597.10;130584;1257;106562;-79
2024/03/04 12:59:32;;;;;;;29.00;20.40;;;;;;;10.02;70.33;99599.02;130362;1261;107785;-77
2024/03/04 13:02:38;;;;;;;33.20;21.00;;;;;;;9.99;70.18;99599.73;130402;1272;108766;-78
2024/03/04 13:05:44;;;;;;;30.10;21.30;;;;;;;9.95;70.20;99595.73;130261;1264;108141;-83
2024/03/04 13:08:50;;;;;;;32.50;21.90;;;;;;;9.91;70.32;99597.75;130464;1262;108550;-78
2024/03/04 13:11:56;;;;;;;30.50;21.60;;;;;;;9.90;70.42;99593.39;130266;1264;105740;-81
2024/03/04 13:15:02;;;;;;;30.10;22.00;;;;;;;9.87;70.57;99587.36;130783;1258;106807;-80
2024/03/04 13:18:09;;;;;;;31.70;22.70;;;;;;;9.82;70.06;99583.88;130453;1261;106629;-85
2024/03/04 13:21:15;;;;;;;32.10;22.10;;;;;;;9.79;70.34;99583.67;130541;1263;108688;-83
2024/03/04 13:24:20;;;;;;;35.10;23.30;;;;;;;9.79;70.50;99583.00;130563;1258;106754;-85
2024/03/04 13:27:26;;;;;;;35.40;23.50;;;;;;;9.79;70.39;99580.88;130570;1263;106413;-86
2024/03/04 13:30:32;;;;;;;32.20;22.00;;;;;;;9.76;70.37;99582.45;130469;1262;108589;-85
2024/03/04 13:33:37;;;;;;;32.70;22.60;;;;;;;9.74;70.49;99587.45;130370;1261;106438;-86
2024/03/04 13:36:43;;;;;;;34.10;22.50;;;;;;;9.72;70.47;99592.23;130443;1258;107219;-83
2024/03/04 13:39:49;;;;;;;35.00;23.80;;;;;;;9.64;70.67;99590.78;130399;1264;107924;-84
2024/03/04 13:42:55;;;;;;;34.00;23.90;;;;;;;9.60;70.53;99591.27;130495;1263;108757;-84
2024/03/04 13:46:01;;;;;;;33.90;23.50;;;;;;;9.55;70.50;99595.98;130487;1261;108321;-83
2024/03/04 13:49:07;;;;;;;33.50;22.90;;;;;;;9.49;70.76;99597.77;130662;1263;107632;-82
2024/03/04 13:52:13;;;;;;;38.00;25.60;;;;;;;9.45;70.71;99601.39;130551;1262;106771;-80
2024/03/04 13:55:18;;;;;;;38.10;24.00;;;;;;;9.38;70.71;99599.43;131409;1258;107118;-80
2024/03/04 13:58:24;;;;;;;34.60;23.90;;;;;;;9.30;70.81;99605.52;130686;1260;107113;-81
2024/03/04 14:01:30;;;;;;;35.70;23.80;;;;;;;9.24;70.71;99600.73;130587;1259;106658;-80
2024/03/04 14:04:36;;;;;;;38.00;23.50;;;;;;;9.16;70.70;99599.81;130409;1263;106549;-80